X  Close Metar Aviation Weather Data     EBBR Brussels Airport
Temperature
18°C Temperature
9°C Dewpoint
56% Humidity



Wind
19 KM/H
12 MPH
5 M/S
10 KTS



350°
North
Current Conditions

Partly Cloudy Partly Cloudy
Pressure 1023.92 (hPa) - 30.24 (inHg)
Visibility 6.2 (mile) - 10 (km)
Airport
Airport-code EBBR

Location: Brussels Airport
Distance: 14 (km)

Metar:
EBBR 121750Z 35010KT 9999 FEW043 18/09 Q1024 NOSIG

Time: 12-06-2021 19:50 CEST